createdAt,value
2022-09-04T00:02:09.816Z,83.78
2022-09-04T00:04:47.439Z,83.51
2022-09-04T00:07:23.098Z,83.94
2022-09-04T00:10:02.863Z,83.75
2022-09-04T00:12:36.636Z,84.09
2022-09-04T00:15:14.750Z,84.10
2022-09-04T00:17:49.563Z,83.97
2022-09-04T00:20:26.873Z,83.89
2022-09-04T00:23:01.140Z,83.70
2022-09-04T00:25:36.495Z,83.65
2022-09-04T00:28:13.170Z,83.65
2022-09-04T00:30:50.383Z,83.66
2022-09-04T00:33:23.688Z,83.67
2022-09-04T00:35:57.535Z,83.39
2022-09-04T00:38:35.488Z,83.54
2022-09-04T00:41:11.964Z,83.05
2022-09-04T00:44:14.497Z,83.13
2022-09-04T00:47:05.222Z,83.22
2022-09-04T00:49:57.543Z,83.03
2022-09-04T00:52:46.921Z,83.10
2022-09-04T00:55:27.671Z,83.05
2022-09-04T00:58:07.118Z,82.92
2022-09-04T01:00:36.712Z,82.84
2022-09-04T01:03:27.476Z,83.22
2022-09-04T01:06:13.802Z,83.25
2022-09-04T01:08:56.351Z,83.20
2022-09-04T01:11:34.018Z,83.02
2022-09-04T01:14:13.410Z,82.87
2022-09-04T01:16:48.341Z,82.83
2022-09-04T01:19:32.689Z,83.11
2022-09-04T01:22:14.931Z,82.92
2022-09-04T01:25:03.625Z,83.28
2022-09-04T01:27:40.463Z,82.89
2022-09-04T01:30:11.881Z,82.86
2022-09-04T01:32:48.798Z,83.19
2022-09-04T01:35:26.999Z,83.15
2022-09-04T01:38:04.649Z,83.28
2022-09-04T01:40:40.766Z,83.49
2022-09-04T01:43:14.626Z,83.44
2022-09-04T01:45:52.936Z,83.33
2022-09-04T01:48:26.227Z,83.65
2022-09-04T01:51:01.611Z,83.71
2022-09-04T01:53:32.986Z,83.76
2022-09-04T01:56:11.318Z,83.56
2022-09-04T01:58:47.759Z,83.76
2022-09-04T02:01:22.898Z,83.71
2022-09-04T02:03:57.361Z,84.06
2022-09-04T02:06:34.876Z,83.76
2022-09-04T02:09:22.190Z,84.23
2022-09-04T02:11:57.230Z,84.19
2022-09-04T02:14:37.587Z,84.29
2022-09-04T02:17:12.708Z,84.42
2022-09-04T02:20:00.618Z,84.27
2022-09-04T02:22:37.118Z,84.67
2022-09-04T02:25:09.909Z,84.86
2022-09-04T02:27:45.676Z,85.04
2022-09-04T02:30:20.643Z,84.92
2022-09-04T02:32:56.746Z,85.10
2022-09-04T02:35:32.156Z,85.24
2022-09-04T02:38:09.490Z,85.31
2022-09-04T02:40:45.718Z,85.31
2022-09-04T02:43:35.761Z,85.32
2022-09-04T02:46:11.945Z,85.52
2022-09-04T02:48:49.954Z,85.41
2022-09-04T02:51:29.836Z,85.17
2022-09-04T02:54:04.760Z,85.54
2022-09-04T02:56:43.747Z,85.68
2022-09-04T02:59:37.827Z,85.92
2022-09-04T03:02:18.553Z,85.63
2022-09-04T03:04:54.111Z,85.90
2022-09-04T03:07:28.495Z,85.82
2022-09-04T03:10:03.358Z,85.86
2022-09-04T03:12:38.327Z,85.99
2022-09-04T03:15:16.180Z,86.36
2022-09-04T03:17:53.500Z,86.42
2022-09-04T03:20:25.673Z,86.62
2022-09-04T03:23:00.586Z,86.65
2022-09-04T03:25:48.455Z,86.96
2022-09-04T03:28:23.046Z,86.72
2022-09-04T03:30:54.556Z,86.99
2022-09-04T03:33:30.163Z,87.00
2022-09-04T03:36:03.495Z,87.07
2022-09-04T03:38:39.207Z,87.38
2022-09-04T03:41:18.210Z,87.47
2022-09-04T03:44:00.753Z,87.34
2022-09-04T03:46:40.948Z,87.69
2022-09-04T03:49:19.912Z,87.44
2022-09-04T03:52:00.215Z,87.51
2022-09-04T03:54:42.465Z,87.74
2022-09-04T03:57:24.923Z,87.72
2022-09-04T04:00:04.685Z,87.42
2022-09-04T04:02:59.832Z,87.45
2022-09-04T04:05:41.347Z,87.57
2022-09-04T04:08:28.447Z,87.60
2022-09-04T04:11:03.275Z,87.57
2022-09-04T04:13:43.650Z,87.60
2022-09-04T04:16:27.741Z,87.33
2022-09-04T04:19:01.622Z,87.05
2022-09-04T04:21:55.589Z,86.91
2022-09-04T04:24:39.269Z,86.80
2022-09-04T04:27:23.582Z,87.12
2022-09-04T04:29:56.392Z,86.79
2022-09-04T04:32:38.699Z,86.60
2022-09-04T04:35:16.487Z,86.98
2022-09-04T04:37:59.405Z,87.12
2022-09-04T04:40:43.363Z,87.35
2022-09-04T04:43:16.923Z,87.25
2022-09-04T04:45:55.354Z,87.18
2022-09-04T04:49:04.370Z,87.04
2022-09-04T04:52:15.933Z,86.93
2022-09-04T04:54:57.119Z,86.96
2022-09-04T04:57:35.562Z,86.80
2022-09-04T05:00:11.739Z,86.78
2022-09-04T05:02:51.961Z,86.71
2022-09-04T05:05:41.929Z,86.62
2022-09-04T05:08:17.846Z,86.77
2022-09-04T05:10:51.310Z,86.51
2022-09-04T05:13:27.246Z,86.67
2022-09-04T05:16:09.365Z,86.51
2022-09-04T05:18:46.119Z,86.24
2022-09-04T05:21:20.389Z,86.10
2022-09-04T05:23:54.855Z,86.18
2022-09-04T05:26:32.754Z,86.10
2022-09-04T05:29:05.877Z,85.99
2022-09-04T05:31:43.165Z,86.05
2022-09-04T05:34:17.247Z,85.99
2022-09-04T05:36:49.665Z,85.41
2022-09-04T05:39:27.835Z,85.30
2022-09-04T05:42:35.280Z,85.33
2022-09-04T05:45:10.196Z,85.19
2022-09-04T05:47:46.562Z,84.93
2022-09-04T05:50:37.574Z,84.96
2022-09-04T05:53:30.701Z,84.47
2022-09-04T05:56:28.282Z,84.57
2022-09-04T05:59:10.156Z,84.03
2022-09-04T06:01:59.458Z,83.80
2022-09-04T06:04:44.818Z,83.96
2022-09-04T06:07:17.449Z,83.78
2022-09-04T06:10:00.693Z,83.08
2022-09-04T06:12:44.630Z,83.13
2022-09-04T06:15:25.645Z,82.95
2022-09-04T06:18:05.396Z,82.47
2022-09-04T06:20:42.836Z,82.43
2022-09-04T06:23:29.767Z,82.00
2022-09-04T06:26:31.747Z,81.98
2022-09-04T06:29:08.383Z,81.35
2022-09-04T06:32:10.352Z,81.09
2022-09-04T06:34:54.986Z,80.54
2022-09-04T06:37:33.145Z,79.88
2022-09-04T06:40:13.895Z,79.38
2022-09-04T06:42:53.080Z,78.57
2022-09-04T06:45:28.053Z,78.04
2022-09-04T06:48:06.338Z,77.09
2022-09-04T06:50:47.251Z,75.81
2022-09-04T06:53:36.086Z,73.27
2022-09-04T06:56:14.159Z,71.58
2022-09-04T06:59:02.660Z,69.95
2022-09-04T07:01:40.598Z,68.42
2022-09-04T07:04:18.937Z,66.41
2022-09-04T07:07:04.307Z,63.75
2022-09-04T07:09:37.429Z,61.50
2022-09-04T07:12:29.956Z,58.46
2022-09-04T07:15:19.220Z,56.34
2022-09-04T07:18:01.496Z,54.35
2022-09-04T07:20:37.238Z,52.51
2022-09-04T07:23:27.662Z,49.80
2022-09-04T07:26:05.623Z,48.85
2022-09-04T07:28:44.526Z,48.28
2022-09-04T07:31:18.269Z,47.05
2022-09-04T07:33:54.868Z,45.43
2022-09-04T07:36:32.961Z,44.09
2022-09-04T07:39:12.360Z,42.57
2022-09-04T07:41:49.305Z,42.01
2022-09-04T07:44:26.627Z,41.32
2022-09-04T07:47:01.387Z,40.83
2022-09-04T07:49:35.389Z,40.28
2022-09-04T07:52:11.691Z,39.39
2022-09-04T07:54:54.692Z,38.49
2022-09-04T07:57:34.873Z,38.43
2022-09-04T08:00:08.661Z,37.76
2022-09-04T08:03:02.894Z,36.22
2022-09-04T08:05:34.319Z,35.94
2022-09-04T08:08:35.593Z,34.53
2022-09-04T08:11:38.066Z,33.68
2022-09-04T08:14:22.573Z,33.57
2022-09-04T08:17:00.121Z,33.97
2022-09-04T08:19:43.039Z,32.76
2022-09-04T08:22:13.750Z,34.46
2022-09-04T08:25:00.988Z,33.36
2022-09-04T08:27:44.875Z,31.89
2022-09-04T08:30:18.717Z,29.96
2022-09-04T08:33:03.083Z,28.34
2022-09-04T08:35:35.856Z,27.94
2022-09-04T08:38:15.712Z,27.14
2022-09-04T08:41:15.606Z,26.27
2022-09-04T08:44:14.139Z,25.75
2022-09-04T08:47:04.391Z,25.72
2022-09-04T08:49:56.041Z,25.26
2022-09-04T08:52:46.345Z,25.09
2022-09-04T08:55:39.155Z,24.81
2022-09-04T08:58:24.690Z,24.11
2022-09-04T09:01:23.751Z,24.77
2022-09-04T09:04:11.963Z,25.85
2022-09-04T09:07:10.011Z,25.19
2022-09-04T09:10:02.947Z,25.39
2022-09-04T09:13:23.470Z,24.72
2022-09-04T09:16:09.368Z,24.56
2022-09-04T09:18:41.502Z,24.94
2022-09-04T09:21:23.721Z,24.29
2022-09-04T09:24:22.842Z,24.47
2022-09-04T09:27:02.385Z,24.21
2022-09-04T09:29:46.572Z,24.43
2022-09-04T09:32:46.012Z,23.73
2022-09-04T09:35:26.380Z,24.09
2022-09-04T09:38:20.010Z,23.42
2022-09-04T09:41:20.115Z,23.23
2022-09-04T09:44:09.305Z,23.47
2022-09-04T09:46:59.326Z,23.63
2022-09-04T09:50:01.911Z,24.07
2022-09-04T09:53:00.510Z,24.04
2022-09-04T09:56:08.619Z,23.58
2022-09-04T09:59:13.957Z,24.05
2022-09-04T10:02:16.529Z,24.14
2022-09-04T10:05:13.611Z,24.75
2022-09-04T10:08:10.599Z,25.72
2022-09-04T10:11:01.966Z,26.26
2022-09-04T10:13:55.631Z,27.73
2022-09-04T10:16:39.353Z,29.22
2022-09-04T10:19:28.945Z,30.57
2022-09-04T10:22:17.366Z,31.95
2022-09-04T10:25:16.311Z,33.09
2022-09-04T10:27:57.703Z,34.20
2022-09-04T10:30:27.792Z,35.61
2022-09-04T10:33:26.560Z,36.63
2022-09-04T10:36:16.300Z,37.23
2022-09-04T10:39:03.472Z,38.20
2022-09-04T10:41:53.646Z,38.65
2022-09-04T10:44:47.956Z,39.42
2022-09-04T10:47:28.100Z,39.44
2022-09-04T10:50:15.509Z,39.60
2022-09-04T10:53:03.830Z,40.29
2022-09-04T10:55:39.087Z,40.76
2022-09-04T10:58:39.892Z,41.21
2022-09-04T11:01:36.939Z,41.28
2022-09-04T11:04:27.213Z,41.21
2022-09-04T11:07:28.865Z,40.75
2022-09-04T11:10:30.974Z,40.46
2022-09-04T11:13:29.776Z,40.71
2022-09-04T11:16:35.896Z,40.60
2022-09-04T11:19:26.556Z,40.37
2022-09-04T11:22:20.470Z,40.19
2022-09-04T11:25:19.957Z,40.03
2022-09-04T11:28:33.822Z,39.68
2022-09-04T11:31:16.091Z,39.99
2022-09-04T11:34:06.455Z,39.27
2022-09-04T11:36:52.606Z,39.71
2022-09-04T11:39:43.701Z,40.15
2022-09-04T11:42:31.069Z,40.64
2022-09-04T11:45:34.691Z,41.03
2022-09-04T11:48:24.395Z,40.99
2022-09-04T11:51:16.530Z,40.86
2022-09-04T11:54:01.672Z,40.55
2022-09-04T11:56:49.550Z,40.54
2022-09-04T11:59:39.399Z,40.28
2022-09-04T12:02:35.091Z,41.06
2022-09-04T12:05:24.840Z,41.12
2022-09-04T12:08:07.839Z,40.93
2022-09-04T12:10:50.166Z,40.70
2022-09-04T12:13:44.927Z,41.23
2022-09-04T12:16:28.890Z,41.08
2022-09-04T12:19:33.272Z,40.71
2022-09-04T12:22:17.419Z,40.74
2022-09-04T12:25:03.784Z,40.88
2022-09-04T12:27:56.063Z,40.72
2022-09-04T12:30:26.354Z,40.41
2022-09-04T12:33:25.052Z,40.54
2022-09-04T12:36:29.921Z,40.60
2022-09-04T12:39:17.783Z,40.30
2022-09-04T12:41:54.478Z,40.11
2022-09-04T12:44:33.126Z,40.16
2022-09-04T12:47:14.092Z,39.95
2022-09-04T12:50:01.890Z,40.51
2022-09-04T12:52:41.328Z,41.30
2022-09-04T12:55:19.350Z,41.31
2022-09-04T12:58:00.875Z,40.74
2022-09-04T13:00:48.594Z,40.48
2022-09-04T13:03:26.461Z,40.24
2022-09-04T13:06:04.550Z,40.21
2022-09-04T13:08:45.627Z,40.13
2022-09-04T13:11:27.815Z,40.20
2022-09-04T13:14:07.620Z,40.54
2022-09-04T13:16:43.167Z,40.57
2022-09-04T13:19:20.016Z,40.97
2022-09-04T13:22:08.989Z,40.83
2022-09-04T13:24:51.285Z,40.62
2022-09-04T13:27:36.499Z,40.95
2022-09-04T13:30:09.556Z,40.65
2022-09-04T13:33:02.830Z,40.49
2022-09-04T13:35:42.668Z,40.35
2022-09-04T13:38:40.396Z,39.94
2022-09-04T13:41:30.511Z,40.00
2022-09-04T13:44:45.720Z,39.90
2022-09-04T13:47:21.014Z,39.76
2022-09-04T13:49:56.670Z,39.72
2022-09-04T13:52:30.553Z,39.45
2022-09-04T13:55:04.683Z,39.52
2022-09-04T13:57:39.020Z,39.41
2022-09-04T14:00:12.106Z,39.86
2022-09-04T14:02:44.848Z,39.72
2022-09-04T14:05:16.504Z,40.13
2022-09-04T14:07:49.238Z,39.85
2022-09-04T14:10:22.339Z,39.82
2022-09-04T14:13:04.975Z,39.93
2022-09-04T14:15:51.589Z,39.65
2022-09-04T14:18:45.356Z,39.50
2022-09-04T14:21:19.973Z,39.53
2022-09-04T14:23:54.370Z,39.21
2022-09-04T14:26:31.623Z,38.99
2022-09-04T14:29:07.031Z,38.66
2022-09-04T14:31:46.872Z,38.45
2022-09-04T14:34:28.928Z,38.75
2022-09-04T14:37:08.224Z,38.35
2022-09-04T14:39:40.910Z,38.49
2022-09-04T14:42:33.571Z,38.33
2022-09-04T14:45:14.494Z,38.64
2022-09-04T14:47:47.410Z,38.57
2022-09-04T14:50:20.496Z,38.82
2022-09-04T14:52:52.281Z,38.84
2022-09-04T14:55:27.654Z,38.96
2022-09-04T14:58:02.046Z,38.45
2022-09-04T15:00:34.132Z,38.35
2022-09-04T15:03:09.297Z,38.24
2022-09-04T15:05:51.560Z,38.90
2022-09-04T15:08:34.644Z,39.10
2022-09-04T15:11:08.991Z,39.42
2022-09-04T15:13:50.773Z,39.11
2022-09-04T15:16:28.607Z,38.90
2022-09-04T15:19:03.623Z,38.89
2022-09-04T15:21:41.619Z,38.76
2022-09-04T15:24:26.551Z,38.49
2022-09-04T15:27:01.486Z,38.81
2022-09-04T15:29:35.951Z,38.65
2022-09-04T15:32:09.430Z,38.58
2022-09-04T15:34:44.112Z,38.73
2022-09-04T15:37:22.207Z,38.46
2022-09-04T15:39:58.217Z,38.55
2022-09-04T15:42:37.532Z,38.55
2022-09-04T15:45:13.239Z,38.59
2022-09-04T15:47:53.310Z,38.79
2022-09-04T15:50:24.794Z,39.03
2022-09-04T15:53:02.595Z,39.17
2022-09-04T15:55:34.457Z,39.58
2022-09-04T15:58:08.618Z,39.38
2022-09-04T16:00:41.444Z,39.67
2022-09-04T16:03:15.781Z,39.26
2022-09-04T16:05:47.567Z,39.13
2022-09-04T16:08:25.170Z,39.62
2022-09-04T16:11:01.605Z,39.32
2022-09-04T16:13:38.741Z,39.59
2022-09-04T16:16:13.727Z,39.89
2022-09-04T16:18:52.283Z,39.71
2022-09-04T16:21:32.173Z,39.89
2022-09-04T16:24:09.184Z,40.02
2022-09-04T16:26:40.137Z,40.19
2022-09-04T16:29:17.467Z,40.18
2022-09-04T16:31:54.395Z,40.76
2022-09-04T16:34:26.120Z,40.31
2022-09-04T16:37:01.995Z,40.48
2022-09-04T16:39:47.654Z,40.68
2022-09-04T16:42:23.626Z,40.87
2022-09-04T16:44:56.426Z,41.21
2022-09-04T16:47:31.652Z,41.26
2022-09-04T16:50:13.423Z,41.54
2022-09-04T16:52:48.308Z,41.21
2022-09-04T16:55:31.339Z,41.06
2022-09-04T16:58:15.516Z,41.04
2022-09-04T17:01:13.728Z,41.27
2022-09-04T17:04:04.125Z,41.43
2022-09-04T17:06:47.802Z,41.61
2022-09-04T17:09:23.493Z,41.30
2022-09-04T17:11:58.204Z,42.17
2022-09-04T17:14:33.849Z,41.93
2022-09-04T17:17:29.863Z,42.23
2022-09-04T17:20:04.377Z,41.61
2022-09-04T17:29:02.240Z,41.72
2022-09-04T17:29:17.547Z,42.11
2022-09-04T17:29:17.549Z,41.88
2022-09-04T17:31:45.684Z,42.44
2022-09-04T17:40:32.087Z,42.68
2022-09-04T17:40:37.324Z,43.18
2022-09-04T17:40:49.878Z,43.45
2022-09-04T17:43:23.422Z,43.88
2022-09-04T17:46:04.605Z,44.11
2022-09-04T17:48:35.442Z,44.21
2022-09-04T17:51:07.352Z,44.35
2022-09-04T17:53:39.539Z,44.93
2022-09-04T17:56:14.730Z,45.37
2022-09-04T17:58:46.649Z,45.83
2022-09-04T18:01:23.009Z,46.40
2022-09-04T18:04:20.330Z,46.41
2022-09-04T18:06:55.877Z,46.42
2022-09-04T18:09:29.744Z,47.00
2022-09-04T18:12:11.145Z,47.51
2022-09-04T18:14:45.357Z,47.56
2022-09-04T18:17:23.637Z,48.08
2022-09-04T18:19:55.343Z,48.48
2022-09-04T18:22:33.511Z,49.34
2022-09-04T18:25:15.974Z,49.45
2022-09-04T18:28:06.226Z,49.84
2022-09-04T18:37:11.211Z,50.61
2022-09-04T18:37:24.340Z,51.56
2022-09-04T18:37:26.041Z,51.30
2022-09-04T18:39:40.646Z,51.72
2022-09-04T18:48:37.568Z,52.02
2022-09-04T18:50:38.909Z,52.68
2022-09-04T18:50:48.707Z,52.52
2022-09-04T18:51:19.322Z,52.84
2022-09-04T18:53:54.268Z,53.83
2022-09-04T18:56:27.046Z,53.87
2022-09-04T18:59:01.018Z,53.80
2022-09-04T19:01:37.453Z,54.35
2022-09-04T19:04:31.980Z,54.40
2022-09-04T19:07:08.320Z,55.06
2022-09-04T19:10:03.780Z,55.14
2022-09-04T19:12:46.842Z,55.12
2022-09-04T19:15:36.722Z,54.63
2022-09-04T19:18:11.279Z,55.27
2022-09-04T19:20:47.536Z,55.50
2022-09-04T19:23:25.716Z,56.35
2022-09-04T19:25:57.010Z,56.22
2022-09-04T19:28:28.861Z,56.84
2022-09-04T19:31:01.481Z,56.97
2022-09-04T19:33:39.066Z,57.53
2022-09-04T19:36:13.511Z,57.31
2022-09-04T19:45:56.529Z,58.19
2022-09-04T19:46:12.707Z,58.10
2022-09-04T19:47:30.927Z,58.30
2022-09-04T19:53:17.802Z,58.80
2022-09-04T19:53:31.899Z,58.54
2022-09-04T19:56:04.138Z,59.34
2022-09-04T19:58:40.119Z,59.34
2022-09-04T20:01:17.610Z,59.83
2022-09-04T20:03:52.817Z,59.76
2022-09-04T20:06:25.282Z,59.96
2022-09-04T20:08:59.253Z,60.42
2022-09-04T20:11:36.516Z,60.36
2022-09-04T20:14:15.043Z,60.63
2022-09-04T20:16:57.021Z,60.58
2022-09-04T20:19:28.928Z,60.31
2022-09-04T20:22:02.905Z,60.79
2022-09-04T20:24:36.403Z,59.95
2022-09-04T20:27:15.861Z,60.10
2022-09-04T20:29:54.488Z,60.10
2022-09-04T20:32:28.505Z,60.27
2022-09-04T20:35:13.169Z,60.75
2022-09-04T20:37:48.780Z,60.90
2022-09-04T20:40:35.364Z,61.06
2022-09-04T20:43:19.947Z,61.17
2022-09-04T20:49:53.753Z,61.11
2022-09-04T20:52:42.762Z,60.51
2022-09-04T20:52:59.018Z,60.51
2022-09-04T20:54:56.047Z,61.11
2022-09-04T21:02:12.870Z,61.09
2022-09-04T21:03:23.853Z,61.21
2022-09-04T21:03:29.399Z,61.24
2022-09-04T21:06:10.697Z,61.53
2022-09-04T21:08:48.438Z,61.61
2022-09-04T21:11:39.655Z,61.17
2022-09-04T21:14:15.941Z,61.66
2022-09-04T21:17:34.948Z,62.02
2022-09-04T21:21:00.023Z,61.47
2022-09-04T21:23:46.382Z,61.95
2022-09-04T21:26:30.233Z,62.06
2022-09-04T21:29:35.694Z,62.13
2022-09-04T21:32:32.040Z,62.74
2022-09-04T21:35:09.365Z,62.98
2022-09-04T21:37:44.744Z,62.65
2022-09-04T21:40:50.761Z,63.06
2022-09-04T21:43:48.981Z,62.80
2022-09-04T21:46:29.379Z,63.05
2022-09-04T21:49:19.655Z,63.27
2022-09-04T21:52:10.643Z,63.48
2022-09-04T21:57:28.803Z,62.82
2022-09-04T22:02:42.616Z,63.11
2022-09-04T22:02:43.254Z,63.31
2022-09-04T22:04:28.915Z,63.10
2022-09-04T22:10:15.529Z,63.23
2022-09-04T22:13:31.305Z,63.34
2022-09-04T22:13:40.554Z,63.63
2022-09-04T22:16:02.464Z,63.58
2022-09-04T22:18:43.171Z,63.95
2022-09-04T22:21:25.753Z,64.29
2022-09-04T22:24:18.565Z,64.01
2022-09-04T22:27:18.327Z,64.40
2022-09-04T22:29:52.901Z,64.12
2022-09-04T22:33:07.139Z,63.54
2022-09-04T22:35:58.678Z,63.67
2022-09-04T22:38:54.570Z,63.32
2022-09-04T22:41:37.762Z,63.27
2022-09-04T22:44:18.235Z,62.73
2022-09-04T22:47:31.200Z,63.08
2022-09-04T22:50:48.755Z,62.86
2022-09-04T22:53:47.332Z,62.88
2022-09-04T22:56:24.818Z,63.08
2022-09-04T22:59:25.756Z,63.22
2022-09-04T23:02:18.520Z,62.97
2022-09-04T23:05:01.235Z,63.33
2022-09-04T23:13:48.231Z,63.37
2022-09-04T23:13:52.085Z,63.07
2022-09-04T23:14:06.532Z,62.80
2022-09-04T23:16:49.403Z,62.73
2022-09-04T23:26:28.296Z,62.98
2022-09-04T23:26:45.678Z,63.42
2022-09-04T23:26:49.804Z,63.30
2022-09-04T23:29:41.198Z,63.13
2022-09-04T23:32:32.231Z,62.97
2022-09-04T23:35:15.769Z,63.02
2022-09-04T23:38:15.397Z,62.98
2022-09-04T23:40:47.101Z,62.92
2022-09-04T23:43:55.267Z,62.94
2022-09-04T23:46:54.616Z,63.20
2022-09-04T23:49:53.532Z,63.06
2022-09-04T23:52:29.321Z,63.64
2022-09-04T23:55:25.404Z,63.50
2022-09-04T23:57:58.606Z,63.37
